Pagrindinis puslapis
METAR-TAF:

METAR-TAF

Oro uostai :

Kokola, Suomija

platuma: 63-43N, ilguma: 023-09E, Aukštis: 25 m

Dabartinis oras

Ataskaita buvo paskelbta 5 minutes, ne 04:50 UTC
Vėjas 12 kt iš Pietų
Temperatūra 14°C
Drėgmė 88%
Slėgis 1008 hPa
Matomumas 10 km arba daugiau
Išsisklaidę debesys ne aukštis 900 ft

METAR: EFKK 200450Z AUTO 17012KT 9999 SCT009 14/12 Q1008

Laikas: 07:55 (04:55 UTC)

Prognozė

Ataskaita buvo paskelbta 8 valandos ir 24 minutes, ne 20:31 UTC
Prognozė galioja nuo 19 metu 21 UTC su 19 metu 23 UTC
Vėjas 10 kt iš Pietų
Matomumas 10 km arba daugiau
nėra debesų žemiau 1500 m ir nėra kamuolinių lietaus debesų

TAF: EFKK 192031Z 1921/1923 17010KT CAVOK

Orai ataskaitas ir orų prognozės (METAR, TAF).

turimą stotys yra geltonos ir raudonos taškus žemėlapyje.

Perkelti pele per norėdami pamatyti stoties vardą.

Tada spustelėkite, norėdami matyti oro stebėjimo ir prognozės.

Norėdami pakeisti žemėlapį: spustelėkite ant žalios mygtukų su juodo kryžiaus žemyn,; žalią mygtuką su brūkšneliu, jei norite nutolinti; arba žalių rodyklių gretimoms žemėlapius.


METAR-TAF: